Terminal Aerodrome Forecast
Issued by NWS

Current Version | Previous Version | Graphics & Text | Print | Product List | Glossary On
Versions: 1 2 3 4 5 6 7 8 9 10 11 12 13 14 15 16 17 18 19 20 21 22 23 24 25 26 27 28 29 30 31 32 33 34 35 36 37 38 39 40 41 42 43 44
000
FTUS41 KRNK 211403 AAG
TAFLWB
TAF AMD
KLWB 211403Z 2114/2212 VRB03KT P6SM OVC020
     FM211500 29005KT P6SM BKN025
     FM211800 30006KT P6SM SCT040
     FM220000 31004KT P6SM SCT140
     FM220800 33006KT P6SM BKN040=

USA.gov is the U.S. government's official web portal to all federal, state and local government web resources and services.